Rechercher aéroport 
image banner adimage banner adimage banner ad
image banner ad

CA72 - Community Memorial Hospital

Situé à Ventura, United States

ICAO - CA72, IATA -

Données fournies par Airmate  

Information générale

Coordonnées: N34°16'29" W119°15'33"
Élévation : 175 feet MSL.
Variation magnétique : 14° East
Voir autres Aéroports à California

Données opérationnelles

Special qualification required
Heure actuelle UTC:
Heure actuelle locale:
Météo à : KOXR - Oxnard ( 9 km )
METAR: KOXR 270523Z 00000KT 10SM OVC010 19/16 A2998 RMK AO2 T01890161
TAF: KOXR 270438Z 2705/2724 VRB03KT P6SM BKN008 BKN120 FM271600 VRB03KT P6SM BKN012 FM271800 27010KT P6SM SKC
Voir NOTAMs / SUP AIP / TFR affectant cet aéroport [VIEW]
Fréquences de communication: [VIEW]

Pistes:

Coordonnées de l'aéroport

Adresse: Ventura United States

Vue satellite de CA72